sensor_id;sensor_type;location;lat;lon;timestamp;P1;durP1;ratioP1;P2;durP2;ratioP2
37199;SDS011;23096;50.892;16.746;2023-03-23T00:02:02;3.40;;;2.00;;
37199;SDS011;23096;50.892;16.746;2023-03-23T00:04:28;3.50;;;2.90;;
37199;SDS011;23096;50.892;16.746;2023-03-23T00:06:54;3.90;;;1.90;;
37199;SDS011;23096;50.892;16.746;2023-03-23T00:09:19;4.40;;;2.40;;
37199;SDS011;23096;50.892;16.746;2023-03-23T00:11:49;4.20;;;2.00;;
37199;SDS011;23096;50.892;16.746;2023-03-23T00:14:16;2.60;;;1.60;;
37199;SDS011;23096;50.892;16.746;2023-03-23T00:16:47;3.60;;;2.10;;
37199;SDS011;23096;50.892;16.746;2023-03-23T00:19:14;5.30;;;2.40;;
37199;SDS011;23096;50.892;16.746;2023-03-23T00:21:41;3.20;;;1.60;;
37199;SDS011;23096;50.892;16.746;2023-03-23T00:24:09;3.90;;;1.80;;
37199;SDS011;23096;50.892;16.746;2023-03-23T00:26:46;3.30;;;1.80;;
37199;SDS011;23096;50.892;16.746;2023-03-23T00:31:42;4.60;;;1.80;;
37199;SDS011;23096;50.892;16.746;2023-03-23T00:34:13;6.10;;;2.80;;
37199;SDS011;23096;50.892;16.746;2023-03-23T00:36:44;3.60;;;2.10;;
37199;SDS011;23096;50.892;16.746;2023-03-23T00:39:14;3.90;;;1.80;;
37199;SDS011;23096;50.892;16.746;2023-03-23T00:41:44;3.50;;;2.10;;
37199;SDS011;23096;50.892;16.746;2023-03-23T00:44:10;2.60;;;2.00;;
37199;SDS011;23096;50.892;16.746;2023-03-23T00:46:45;3.50;;;2.10;;
37199;SDS011;23096;50.892;16.746;2023-03-23T00:49:14;3.40;;;1.90;;
37199;SDS011;23096;50.892;16.746;2023-03-23T00:51:45;4.10;;;2.00;;
37199;SDS011;23096;50.892;16.746;2023-03-23T00:54:11;4.30;;;2.80;;
37199;SDS011;23096;50.892;16.746;2023-03-23T00:56:37;4.10;;;1.80;;
37199;SDS011;23096;50.892;16.746;2023-03-23T00:59:06;2.40;;;1.70;;
37199;SDS011;23096;50.892;16.746;2023-03-23T01:01:32;2.40;;;2.00;;
37199;SDS011;23096;50.892;16.746;2023-03-23T01:03:59;2.70;;;1.90;;
37199;SDS011;23096;50.892;16.746;2023-03-23T01:06:29;5.20;;;2.00;;
37199;SDS011;23096;50.892;16.746;2023-03-23T01:08:59;2.10;;;1.80;;
37199;SDS011;23096;50.892;16.746;2023-03-23T01:11:26;3.20;;;2.10;;
37199;SDS011;23096;50.892;16.746;2023-03-23T01:13:51;5.40;;;2.20;;
37199;SDS011;23096;50.892;16.746;2023-03-23T01:16:19;5.40;;;2.70;;
37199;SDS011;23096;50.892;16.746;2023-03-23T01:18:45;3.10;;;2.00;;
37199;SDS011;23096;50.892;16.746;2023-03-23T01:21:12;3.60;;;1.70;;
37199;SDS011;23096;50.892;16.746;2023-03-23T01:23:40;2.80;;;1.90;;
37199;SDS011;23096;50.892;16.746;2023-03-23T01:26:06;2.60;;;1.70;;
37199;SDS011;23096;50.892;16.746;2023-03-23T01:31:04;4.30;;;2.40;;
37199;SDS011;23096;50.892;16.746;2023-03-23T01:36:04;2.40;;;1.80;;
37199;SDS011;23096;50.892;16.746;2023-03-23T01:38:33;3.80;;;2.10;;
37199;SDS011;23096;50.892;16.746;2023-03-23T01:41:00;2.70;;;1.80;;
37199;SDS011;23096;50.892;16.746;2023-03-23T01:43:26;3.70;;;2.20;;
37199;SDS011;23096;50.892;16.746;2023-03-23T01:45:52;3.90;;;2.40;;
37199;SDS011;23096;50.892;16.746;2023-03-23T01:48:22;2.60;;;1.70;;
37199;SDS011;23096;50.892;16.746;2023-03-23T01:50:55;2.80;;;1.50;;
37199;SDS011;23096;50.892;16.746;2023-03-23T01:53:27;2.10;;;1.30;;
37199;SDS011;23096;50.892;16.746;2023-03-23T01:55:58;2.30;;;1.10;;
37199;SDS011;23096;50.892;16.746;2023-03-23T01:58:27;3.70;;;1.50;;
37199;SDS011;23096;50.892;16.746;2023-03-23T02:00:57;2.20;;;1.40;;
37199;SDS011;23096;50.892;16.746;2023-03-23T02:03:27;2.10;;;1.30;;
37199;SDS011;23096;50.892;16.746;2023-03-23T02:05:57;2.10;;;1.50;;
37199;SDS011;23096;50.892;16.746;2023-03-23T02:08:32;4.60;;;1.60;;
37199;SDS011;23096;50.892;16.746;2023-03-23T02:10:59;3.20;;;1.40;;
37199;SDS011;23096;50.892;16.746;2023-03-23T02:13:26;2.70;;;1.60;;
37199;SDS011;23096;50.892;16.746;2023-03-23T02:16:29;2.50;;;1.30;;
37199;SDS011;23096;50.892;16.746;2023-03-23T02:28:01;2.70;;;1.40;;
37199;SDS011;23096;50.892;16.746;2023-03-23T02:33:34;1.40;;;1.10;;
37199;SDS011;23096;50.892;16.746;2023-03-23T02:41:17;2.00;;;1.00;;
37199;SDS011;23096;50.892;16.746;2023-03-23T02:43:47;2.10;;;1.00;;
37199;SDS011;23096;50.892;16.746;2023-03-23T02:46:15;1.90;;;1.20;;
37199;SDS011;23096;50.892;16.746;2023-03-23T02:48:42;1.30;;;1.20;;
37199;SDS011;23096;50.892;16.746;2023-03-23T02:51:11;2.10;;;1.40;;
37199;SDS011;23096;50.892;16.746;2023-03-23T02:53:39;1.40;;;1.10;;
37199;SDS011;23096;50.892;16.746;2023-03-23T02:56:09;4.10;;;1.90;;
37199;SDS011;23096;50.892;16.746;2023-03-23T02:58:36;4.50;;;1.80;;
37199;SDS011;23096;50.892;16.746;2023-03-23T03:04:04;4.90;;;2.80;;
37199;SDS011;23096;50.892;16.746;2023-03-23T03:06:36;3.70;;;1.90;;
37199;SDS011;23096;50.892;16.746;2023-03-23T03:11:48;3.50;;;2.10;;
37199;SDS011;23096;50.892;16.746;2023-03-23T03:14:19;3.30;;;1.70;;
37199;SDS011;23096;50.892;16.746;2023-03-23T03:17:03;4.10;;;2.00;;
37199;SDS011;23096;50.892;16.746;2023-03-23T03:19:37;2.60;;;1.90;;
37199;SDS011;23096;50.892;16.746;2023-03-23T03:22:07;1.90;;;1.50;;
37199;SDS011;23096;50.892;16.746;2023-03-23T03:24:38;2.60;;;1.30;;
37199;SDS011;23096;50.892;16.746;2023-03-23T03:27:10;1.40;;;1.10;;
37199;SDS011;23096;50.892;16.746;2023-03-23T03:29:45;2.00;;;1.00;;
37199;SDS011;23096;50.892;16.746;2023-03-23T03:32:20;2.60;;;1.30;;
37199;SDS011;23096;50.892;16.746;2023-03-23T03:34:50;4.40;;;1.60;;
37199;SDS011;23096;50.892;16.746;2023-03-23T03:37:18;2.60;;;1.40;;
37199;SDS011;23096;50.892;16.746;2023-03-23T03:39:45;1.60;;;1.30;;
37199;SDS011;23096;50.892;16.746;2023-03-23T03:42:11;2.50;;;1.50;;
37199;SDS011;23096;50.892;16.746;2023-03-23T03:44:36;3.80;;;1.10;;
37199;SDS011;23096;50.892;16.746;2023-03-23T03:47:02;1.80;;;1.30;;
37199;SDS011;23096;50.892;16.746;2023-03-23T03:49:28;2.20;;;1.20;;
37199;SDS011;23096;50.892;16.746;2023-03-23T03:51:54;1.60;;;1.20;;
37199;SDS011;23096;50.892;16.746;2023-03-23T03:54:24;2.70;;;1.90;;
37199;SDS011;23096;50.892;16.746;2023-03-23T03:56:49;2.10;;;1.50;;
37199;SDS011;23096;50.892;16.746;2023-03-23T03:59:39;2.90;;;1.50;;
37199;SDS011;23096;50.892;16.746;2023-03-23T04:02:46;2.30;;;1.80;;
37199;SDS011;23096;50.892;16.746;2023-03-23T04:05:16;3.90;;;1.80;;
37199;SDS011;23096;50.892;16.746;2023-03-23T04:07:42;2.90;;;2.00;;
37199;SDS011;23096;50.892;16.746;2023-03-23T04:10:09;2.60;;;1.70;;
37199;SDS011;23096;50.892;16.746;2023-03-23T04:12:37;4.60;;;2.10;;
37199;SDS011;23096;50.892;16.746;2023-03-23T04:15:21;3.20;;;2.00;;
37199;SDS011;23096;50.892;16.746;2023-03-23T04:17:47;3.00;;;1.70;;
37199;SDS011;23096;50.892;16.746;2023-03-23T04:20:13;2.00;;;1.80;;
37199;SDS011;23096;50.892;16.746;2023-03-23T04:22:40;2.50;;;1.70;;
37199;SDS011;23096;50.892;16.746;2023-03-23T04:25:09;3.30;;;2.20;;
37199;SDS011;23096;50.892;16.746;2023-03-23T04:27:39;4.50;;;1.80;;
37199;SDS011;23096;50.892;16.746;2023-03-23T04:30:09;5.30;;;2.20;;
37199;SDS011;23096;50.892;16.746;2023-03-23T04:35:27;6.60;;;2.50;;
37199;SDS011;23096;50.892;16.746;2023-03-23T04:38:06;1.60;;;1.40;;
37199;SDS011;23096;50.892;16.746;2023-03-23T04:40:35;4.20;;;2.20;;
37199;SDS011;23096;50.892;16.746;2023-03-23T04:43:10;4.70;;;2.80;;
37199;SDS011;23096;50.892;16.746;2023-03-23T04:46:03;4.10;;;2.90;;
37199;SDS011;23096;50.892;16.746;2023-03-23T04:48:34;3.10;;;2.20;;
37199;SDS011;23096;50.892;16.746;2023-03-23T04:51:09;3.70;;;2.50;;
37199;SDS011;23096;50.892;16.746;2023-03-23T04:53:35;4.90;;;2.20;;
37199;SDS011;23096;50.892;16.746;2023-03-23T04:56:01;3.80;;;2.30;;
37199;SDS011;23096;50.892;16.746;2023-03-23T04:58:31;6.90;;;2.30;;
37199;SDS011;23096;50.892;16.746;2023-03-23T05:01:17;4.10;;;2.60;;
37199;SDS011;23096;50.892;16.746;2023-03-23T05:04:03;6.30;;;2.00;;
37199;SDS011;23096;50.892;16.746;2023-03-23T05:06:31;4.50;;;1.80;;
37199;SDS011;23096;50.892;16.746;2023-03-23T05:09:00;2.30;;;1.70;;
37199;SDS011;23096;50.892;16.746;2023-03-23T05:11:26;5.70;;;2.10;;
37199;SDS011;23096;50.892;16.746;2023-03-23T05:13:53;2.70;;;2.00;;
37199;SDS011;23096;50.892;16.746;2023-03-23T05:16:19;4.20;;;2.20;;
37199;SDS011;23096;50.892;16.746;2023-03-23T05:18:44;3.50;;;2.50;;
37199;SDS011;23096;50.892;16.746;2023-03-23T05:21:14;3.60;;;2.20;;
37199;SDS011;23096;50.892;16.746;2023-03-23T05:23:42;5.50;;;2.30;;
37199;SDS011;23096;50.892;16.746;2023-03-23T05:26:17;3.30;;;2.10;;
37199;SDS011;23096;50.892;16.746;2023-03-23T05:28:43;3.90;;;2.60;;
37199;SDS011;23096;50.892;16.746;2023-03-23T05:31:17;3.40;;;2.20;;
37199;SDS011;23096;50.892;16.746;2023-03-23T05:33:43;3.50;;;2.10;;
37199;SDS011;23096;50.892;16.746;2023-03-23T05:36:15;6.10;;;2.30;;
37199;SDS011;23096;50.892;16.746;2023-03-23T05:39:01;7.60;;;2.30;;
37199;SDS011;23096;50.892;16.746;2023-03-23T05:41:41;4.10;;;2.30;;
37199;SDS011;23096;50.892;16.746;2023-03-23T05:44:06;6.20;;;2.50;;
37199;SDS011;23096;50.892;16.746;2023-03-23T05:46:44;6.20;;;2.30;;
37199;SDS011;23096;50.892;16.746;2023-03-23T05:49:11;5.60;;;2.50;;
37199;SDS011;23096;50.892;16.746;2023-03-23T05:51:38;5.70;;;2.50;;
37199;SDS011;23096;50.892;16.746;2023-03-23T05:54:03;4.60;;;2.40;;
37199;SDS011;23096;50.892;16.746;2023-03-23T05:56:30;4.10;;;2.80;;
37199;SDS011;23096;50.892;16.746;2023-03-23T05:59:16;5.30;;;3.00;;
37199;SDS011;23096;50.892;16.746;2023-03-23T06:01:43;4.80;;;2.60;;
37199;SDS011;23096;50.892;16.746;2023-03-23T06:04:09;4.40;;;2.70;;
37199;SDS011;23096;50.892;16.746;2023-03-23T06:06:51;5.90;;;3.10;;
37199;SDS011;23096;50.892;16.746;2023-03-23T06:09:17;4.30;;;3.10;;
37199;SDS011;23096;50.892;16.746;2023-03-23T06:12:12;6.50;;;3.20;;
37199;SDS011;23096;50.892;16.746;2023-03-23T06:14:51;4.80;;;3.00;;
37199;SDS011;23096;50.892;16.746;2023-03-23T06:17:21;4.90;;;3.10;;
37199;SDS011;23096;50.892;16.746;2023-03-23T06:19:50;6.50;;;2.60;;
37199;SDS011;23096;50.892;16.746;2023-03-23T06:22:16;5.00;;;3.10;;
37199;SDS011;23096;50.892;16.746;2023-03-23T06:25:01;6.60;;;3.40;;
37199;SDS011;23096;50.892;16.746;2023-03-23T06:30:02;6.70;;;3.10;;
37199;SDS011;23096;50.892;16.746;2023-03-23T06:32:30;5.50;;;3.00;;
37199;SDS011;23096;50.892;16.746;2023-03-23T06:34:57;4.90;;;2.60;;
37199;SDS011;23096;50.892;16.746;2023-03-23T06:37:38;4.90;;;3.00;;
37199;SDS011;23096;50.892;16.746;2023-03-23T06:40:24;5.10;;;3.20;;
37199;SDS011;23096;50.892;16.746;2023-03-23T06:42:56;5.60;;;3.40;;
37199;SDS011;23096;50.892;16.746;2023-03-23T06:45:33;5.70;;;3.50;;
37199;SDS011;23096;50.892;16.746;2023-03-23T06:48:21;5.00;;;3.20;;
37199;SDS011;23096;50.892;16.746;2023-03-23T06:50:47;7.10;;;4.00;;
37199;SDS011;23096;50.892;16.746;2023-03-23T06:53:15;5.70;;;3.70;;
37199;SDS011;23096;50.892;16.746;2023-03-23T06:55:43;5.30;;;3.60;;
37199;SDS011;23096;50.892;16.746;2023-03-23T06:58:10;8.60;;;3.80;;
37199;SDS011;23096;50.892;16.746;2023-03-23T07:00:36;7.70;;;3.90;;
37199;SDS011;23096;50.892;16.746;2023-03-23T07:03:02;6.60;;;3.90;;
37199;SDS011;23096;50.892;16.746;2023-03-23T07:05:29;7.00;;;4.00;;
37199;SDS011;23096;50.892;16.746;2023-03-23T07:07:55;5.10;;;3.30;;
37199;SDS011;23096;50.892;16.746;2023-03-23T07:10:43;8.00;;;4.00;;
37199;SDS011;23096;50.892;16.746;2023-03-23T07:13:09;7.50;;;3.60;;
37199;SDS011;23096;50.892;16.746;2023-03-23T07:15:44;6.30;;;3.90;;
37199;SDS011;23096;50.892;16.746;2023-03-23T07:18:10;7.10;;;4.20;;
37199;SDS011;23096;50.892;16.746;2023-03-23T07:20:42;5.90;;;3.20;;
37199;SDS011;23096;50.892;16.746;2023-03-23T07:23:08;7.90;;;4.70;;
37199;SDS011;23096;50.892;16.746;2023-03-23T07:25:43;7.90;;;4.00;;
37199;SDS011;23096;50.892;16.746;2023-03-23T07:28:13;4.70;;;3.40;;
37199;SDS011;23096;50.892;16.746;2023-03-23T07:30:38;8.10;;;3.60;;
37199;SDS011;23096;50.892;16.746;2023-03-23T07:33:05;5.20;;;2.90;;
37199;SDS011;23096;50.892;16.746;2023-03-23T07:35:32;5.70;;;3.50;;
37199;SDS011;23096;50.892;16.746;2023-03-23T07:38:02;8.10;;;3.40;;
37199;SDS011;23096;50.892;16.746;2023-03-23T07:40:29;5.50;;;3.60;;
37199;SDS011;23096;50.892;16.746;2023-03-23T07:43:00;6.40;;;3.40;;
37199;SDS011;23096;50.892;16.746;2023-03-23T07:45:53;4.70;;;3.30;;
37199;SDS011;23096;50.892;16.746;2023-03-23T07:48:20;5.30;;;3.10;;
37199;SDS011;23096;50.892;16.746;2023-03-23T07:50:46;3.40;;;2.40;;
37199;SDS011;23096;50.892;16.746;2023-03-23T07:53:12;3.50;;;2.80;;
37199;SDS011;23096;50.892;16.746;2023-03-23T07:55:39;5.00;;;2.50;;
37199;SDS011;23096;50.892;16.746;2023-03-23T07:58:25;3.40;;;2.40;;
37199;SDS011;23096;50.892;16.746;2023-03-23T08:00:53;6.70;;;3.00;;
37199;SDS011;23096;50.892;16.746;2023-03-23T08:03:20;4.60;;;2.80;;
37199;SDS011;23096;50.892;16.746;2023-03-23T08:06:04;3.70;;;2.60;;
37199;SDS011;23096;50.892;16.746;2023-03-23T08:08:49;3.10;;;2.20;;
37199;SDS011;23096;50.892;16.746;2023-03-23T08:11:34;3.80;;;2.10;;
37199;SDS011;23096;50.892;16.746;2023-03-23T08:14:15;4.70;;;2.60;;
37199;SDS011;23096;50.892;16.746;2023-03-23T08:17:10;4.30;;;2.70;;
37199;SDS011;23096;50.892;16.746;2023-03-23T08:19:55;4.20;;;2.80;;
37199;SDS011;23096;50.892;16.746;2023-03-23T08:22:40;4.90;;;2.70;;
37199;SDS011;23096;50.892;16.746;2023-03-23T08:25:46;3.00;;;2.30;;
37199;SDS011;23096;50.892;16.746;2023-03-23T08:28:23;2.50;;;2.30;;
37199;SDS011;23096;50.892;16.746;2023-03-23T08:31:08;3.50;;;2.60;;
37199;SDS011;23096;50.892;16.746;2023-03-23T08:34:02;7.00;;;2.40;;
37199;SDS011;23096;50.892;16.746;2023-03-23T08:36:30;4.30;;;2.30;;
37199;SDS011;23096;50.892;16.746;2023-03-23T08:39:15;2.30;;;2.10;;
37199;SDS011;23096;50.892;16.746;2023-03-23T08:42:00;2.80;;;2.10;;
37199;SDS011;23096;50.892;16.746;2023-03-23T08:44:55;3.60;;;2.30;;
37199;SDS011;23096;50.892;16.746;2023-03-23T08:47:44;7.40;;;2.50;;
37199;SDS011;23096;50.892;16.746;2023-03-23T08:50:18;3.00;;;2.50;;
37199;SDS011;23096;50.892;16.746;2023-03-23T08:53:06;3.80;;;2.30;;
37199;SDS011;23096;50.892;16.746;2023-03-23T08:55:47;2.70;;;1.70;;
37199;SDS011;23096;50.892;16.746;2023-03-23T08:58:35;2.20;;;1.80;;
37199;SDS011;23096;50.892;16.746;2023-03-23T09:01:27;4.00;;;1.70;;
37199;SDS011;23096;50.892;16.746;2023-03-23T09:04:22;5.80;;;2.30;;
37199;SDS011;23096;50.892;16.746;2023-03-23T09:07:18;3.40;;;1.80;;
37199;SDS011;23096;50.892;16.746;2023-03-23T09:09:44;2.50;;;1.80;;
37199;SDS011;23096;50.892;16.746;2023-03-23T09:12:10;2.40;;;1.40;;
37199;SDS011;23096;50.892;16.746;2023-03-23T09:14:37;3.80;;;1.60;;
37199;SDS011;23096;50.892;16.746;2023-03-23T09:17:04;3.70;;;1.80;;
37199;SDS011;23096;50.892;16.746;2023-03-23T09:19:30;14.10;;;2.60;;
37199;SDS011;23096;50.892;16.746;2023-03-23T09:21:58;3.10;;;1.90;;
37199;SDS011;23096;50.892;16.746;2023-03-23T09:24:24;4.00;;;1.90;;
37199;SDS011;23096;50.892;16.746;2023-03-23T09:26:50;2.00;;;1.80;;
37199;SDS011;23096;50.892;16.746;2023-03-23T09:29:16;5.40;;;2.10;;
37199;SDS011;23096;50.892;16.746;2023-03-23T09:31:41;4.50;;;2.10;;
37199;SDS011;23096;50.892;16.746;2023-03-23T09:34:08;5.70;;;2.00;;
37199;SDS011;23096;50.892;16.746;2023-03-23T09:36:37;4.10;;;1.70;;
37199;SDS011;23096;50.892;16.746;2023-03-23T09:39:04;3.00;;;1.80;;
37199;SDS011;23096;50.892;16.746;2023-03-23T09:44:14;2.40;;;1.90;;
37199;SDS011;23096;50.892;16.746;2023-03-23T09:49:55;2.00;;;1.30;;
37199;SDS011;23096;50.892;16.746;2023-03-23T09:52:28;5.80;;;1.70;;
37199;SDS011;23096;50.892;16.746;2023-03-23T09:55:04;3.40;;;1.90;;
37199;SDS011;23096;50.892;16.746;2023-03-23T10:06:05;2.10;;;1.60;;
37199;SDS011;23096;50.892;16.746;2023-03-23T10:16:01;2.60;;;1.40;;
37199;SDS011;23096;50.892;16.746;2023-03-23T10:18:30;2.70;;;1.40;;
37199;SDS011;23096;50.892;16.746;2023-03-23T10:21:02;4.40;;;1.50;;
37199;SDS011;23096;50.892;16.746;2023-03-23T10:32:14;2.60;;;1.50;;
37199;SDS011;23096;50.892;16.746;2023-03-23T10:41:14;4.80;;;1.20;;
37199;SDS011;23096;50.892;16.746;2023-03-23T10:43:41;2.80;;;1.20;;
37199;SDS011;23096;50.892;16.746;2023-03-23T10:46:27;2.40;;;1.20;;
37199;SDS011;23096;50.892;16.746;2023-03-23T10:49:04;1.10;;;1.00;;
37199;SDS011;23096;50.892;16.746;2023-03-23T10:51:37;1.60;;;1.20;;
37199;SDS011;23096;50.892;16.746;2023-03-23T10:54:06;2.60;;;1.50;;
37199;SDS011;23096;50.892;16.746;2023-03-23T11:01:42;3.20;;;1.60;;
37199;SDS011;23096;50.892;16.746;2023-03-23T11:04:13;3.40;;;1.50;;
37199;SDS011;23096;50.892;16.746;2023-03-23T11:06:45;5.10;;;1.60;;
37199;SDS011;23096;50.892;16.746;2023-03-23T11:09:14;1.10;;;1.00;;
37199;SDS011;23096;50.892;16.746;2023-03-23T11:11:52;1.50;;;1.00;;
37199;SDS011;23096;50.892;16.746;2023-03-23T11:14:32;4.10;;;1.20;;
37199;SDS011;23096;50.892;16.746;2023-03-23T11:17:04;3.50;;;1.20;;
37199;SDS011;23096;50.892;16.746;2023-03-23T11:24:41;2.90;;;1.00;;
37199;SDS011;23096;50.892;16.746;2023-03-23T11:27:13;1.60;;;1.20;;
37199;SDS011;23096;50.892;16.746;2023-03-23T11:29:51;3.20;;;1.30;;
37199;SDS011;23096;50.892;16.746;2023-03-23T11:32:23;1.60;;;1.00;;
37199;SDS011;23096;50.892;16.746;2023-03-23T11:35:05;4.00;;;1.30;;
37199;SDS011;23096;50.892;16.746;2023-03-23T11:37:44;1.30;;;1.20;;
37199;SDS011;23096;50.892;16.746;2023-03-23T11:40:18;1.80;;;1.20;;
37199;SDS011;23096;50.892;16.746;2023-03-23T11:45:30;3.30;;;1.20;;
37199;SDS011;23096;50.892;16.746;2023-03-23T11:58:22;3.70;;;1.70;;
37199;SDS011;23096;50.892;16.746;2023-03-23T12:00:58;2.40;;;1.70;;
37199;SDS011;23096;50.892;16.746;2023-03-23T12:06:38;2.20;;;1.30;;
37199;SDS011;23096;50.892;16.746;2023-03-23T12:09:32;2.40;;;1.30;;
37199;SDS011;23096;50.892;16.746;2023-03-23T12:12:20;1.70;;;1.50;;
37199;SDS011;23096;50.892;16.746;2023-03-23T12:17:32;4.70;;;1.90;;
37199;SDS011;23096;50.892;16.746;2023-03-23T12:28:01;2.20;;;1.40;;
37199;SDS011;23096;50.892;16.746;2023-03-23T12:30:39;3.10;;;2.20;;
37199;SDS011;23096;50.892;16.746;2023-03-23T12:50:42;9.50;;;5.20;;
37199;SDS011;23096;50.892;16.746;2023-03-23T12:53:15;7.50;;;3.60;;
37199;SDS011;23096;50.892;16.746;2023-03-23T12:56:02;6.90;;;2.20;;
37199;SDS011;23096;50.892;16.746;2023-03-23T12:58:46;5.60;;;2.90;;
37199;SDS011;23096;50.892;16.746;2023-03-23T13:01:20;3.20;;;2.10;;
37199;SDS011;23096;50.892;16.746;2023-03-23T13:03:54;2.90;;;2.30;;
37199;SDS011;23096;50.892;16.746;2023-03-23T13:06:43;2.60;;;1.80;;
37199;SDS011;23096;50.892;16.746;2023-03-23T13:12:22;2.90;;;2.00;;
37199;SDS011;23096;50.892;16.746;2023-03-23T13:15:08;3.60;;;2.10;;
37199;SDS011;23096;50.892;16.746;2023-03-23T13:23:42;2.20;;;1.60;;
37199;SDS011;23096;50.892;16.746;2023-03-23T13:28:43;4.30;;;2.20;;
37199;SDS011;23096;50.892;16.746;2023-03-23T13:31:14;2.20;;;1.60;;
37199;SDS011;23096;50.892;16.746;2023-03-23T13:33:46;2.60;;;1.80;;
37199;SDS011;23096;50.892;16.746;2023-03-23T13:36:17;3.20;;;1.60;;
37199;SDS011;23096;50.892;16.746;2023-03-23T13:38:50;2.80;;;1.70;;
37199;SDS011;23096;50.892;16.746;2023-03-23T13:41:16;3.70;;;1.50;;
37199;SDS011;23096;50.892;16.746;2023-03-23T13:43:45;3.70;;;2.00;;
37199;SDS011;23096;50.892;16.746;2023-03-23T13:46:12;3.60;;;1.90;;
37199;SDS011;23096;50.892;16.746;2023-03-23T13:49:02;6.60;;;2.50;;
37199;SDS011;23096;50.892;16.746;2023-03-23T13:56:51;3.40;;;2.10;;
37199;SDS011;23096;50.892;16.746;2023-03-23T14:01:52;5.50;;;2.40;;
37199;SDS011;23096;50.892;16.746;2023-03-23T14:04:41;3.90;;;2.10;;
37199;SDS011;23096;50.892;16.746;2023-03-23T14:07:10;8.50;;;3.70;;
37199;SDS011;23096;50.892;16.746;2023-03-23T14:09:41;4.50;;;1.70;;
37199;SDS011;23096;50.892;16.746;2023-03-23T14:12:30;4.00;;;1.60;;
37199;SDS011;23096;50.892;16.746;2023-03-23T14:14:58;3.50;;;2.30;;
37199;SDS011;23096;50.892;16.746;2023-03-23T14:17:30;3.10;;;1.70;;
37199;SDS011;23096;50.892;16.746;2023-03-23T14:19:59;3.70;;;1.60;;
37199;SDS011;23096;50.892;16.746;2023-03-23T14:22:36;4.00;;;1.60;;
37199;SDS011;23096;50.892;16.746;2023-03-23T14:25:12;2.10;;;1.70;;
37199;SDS011;23096;50.892;16.746;2023-03-23T14:27:40;3.00;;;1.90;;
37199;SDS011;23096;50.892;16.746;2023-03-23T14:32:39;2.40;;;1.60;;
37199;SDS011;23096;50.892;16.746;2023-03-23T14:35:12;2.70;;;1.80;;
37199;SDS011;23096;50.892;16.746;2023-03-23T14:37:38;2.00;;;1.50;;
37199;SDS011;23096;50.892;16.746;2023-03-23T14:40:04;1.80;;;1.60;;
37199;SDS011;23096;50.892;16.746;2023-03-23T14:42:34;2.90;;;1.80;;
37199;SDS011;23096;50.892;16.746;2023-03-23T14:45:02;4.80;;;1.60;;
37199;SDS011;23096;50.892;16.746;2023-03-23T14:47:40;3.60;;;1.50;;
37199;SDS011;23096;50.892;16.746;2023-03-23T14:53:28;11.90;;;7.30;;
37199;SDS011;23096;50.892;16.746;2023-03-23T14:55:59;42.00;;;27.90;;
37199;SDS011;23096;50.892;16.746;2023-03-23T14:58:32;21.20;;;14.90;;
37199;SDS011;23096;50.892;16.746;2023-03-23T15:01:07;33.00;;;19.70;;
37199;SDS011;23096;50.892;16.746;2023-03-23T15:03:46;15.90;;;8.90;;
37199;SDS011;23096;50.892;16.746;2023-03-23T15:06:21;22.60;;;13.40;;
37199;SDS011;23096;50.892;16.746;2023-03-23T15:08:52;7.70;;;3.00;;
37199;SDS011;23096;50.892;16.746;2023-03-23T15:11:24;3.80;;;1.90;;
37199;SDS011;23096;50.892;16.746;2023-03-23T15:13:54;2.50;;;1.80;;
37199;SDS011;23096;50.892;16.746;2023-03-23T15:16:25;3.30;;;1.80;;
37199;SDS011;23096;50.892;16.746;2023-03-23T15:21:25;3.40;;;2.20;;
37199;SDS011;23096;50.892;16.746;2023-03-23T15:23:51;2.50;;;1.60;;
37199;SDS011;23096;50.892;16.746;2023-03-23T15:26:21;4.00;;;1.90;;
37199;SDS011;23096;50.892;16.746;2023-03-23T15:28:50;3.40;;;1.70;;
37199;SDS011;23096;50.892;16.746;2023-03-23T15:31:15;3.80;;;1.80;;
37199;SDS011;23096;50.892;16.746;2023-03-23T15:33:41;2.70;;;1.90;;
37199;SDS011;23096;50.892;16.746;2023-03-23T15:36:14;3.00;;;1.80;;
37199;SDS011;23096;50.892;16.746;2023-03-23T15:38:43;3.10;;;2.00;;
37199;SDS011;23096;50.892;16.746;2023-03-23T15:41:24;2.50;;;1.90;;
37199;SDS011;23096;50.892;16.746;2023-03-23T15:43:56;5.40;;;2.60;;
37199;SDS011;23096;50.892;16.746;2023-03-23T15:46:25;3.10;;;2.50;;
37199;SDS011;23096;50.892;16.746;2023-03-23T15:51:25;5.90;;;3.20;;
37199;SDS011;23096;50.892;16.746;2023-03-23T15:53:52;3.40;;;2.20;;
37199;SDS011;23096;50.892;16.746;2023-03-23T15:56:19;4.30;;;2.10;;
37199;SDS011;23096;50.892;16.746;2023-03-23T15:58:45;5.50;;;3.00;;
37199;SDS011;23096;50.892;16.746;2023-03-23T16:01:12;4.50;;;2.60;;
37199;SDS011;23096;50.892;16.746;2023-03-23T16:03:44;5.30;;;3.00;;
37199;SDS011;23096;50.892;16.746;2023-03-23T16:08:41;6.90;;;3.10;;
37199;SDS011;23096;50.892;16.746;2023-03-23T16:11:10;6.20;;;2.30;;
37199;SDS011;23096;50.892;16.746;2023-03-23T16:13:36;6.20;;;2.50;;
37199;SDS011;23096;50.892;16.746;2023-03-23T16:16:04;3.60;;;2.10;;
37199;SDS011;23096;50.892;16.746;2023-03-23T16:18:34;3.60;;;2.00;;
37199;SDS011;23096;50.892;16.746;2023-03-23T16:21:00;4.10;;;2.60;;
37199;SDS011;23096;50.892;16.746;2023-03-23T16:23:25;4.20;;;2.50;;
37199;SDS011;23096;50.892;16.746;2023-03-23T16:25:51;5.20;;;2.70;;
37199;SDS011;23096;50.892;16.746;2023-03-23T16:28:17;5.40;;;2.40;;
37199;SDS011;23096;50.892;16.746;2023-03-23T16:30:45;4.20;;;2.40;;
37199;SDS011;23096;50.892;16.746;2023-03-23T16:33:11;4.60;;;2.50;;
37199;SDS011;23096;50.892;16.746;2023-03-23T16:35:37;5.50;;;2.40;;
37199;SDS011;23096;50.892;16.746;2023-03-23T16:38:03;3.30;;;2.40;;
37199;SDS011;23096;50.892;16.746;2023-03-23T16:40:30;3.70;;;2.20;;
37199;SDS011;23096;50.892;16.746;2023-03-23T16:42:56;3.70;;;2.20;;
37199;SDS011;23096;50.892;16.746;2023-03-23T16:45:21;3.60;;;2.50;;
37199;SDS011;23096;50.892;16.746;2023-03-23T16:47:48;4.70;;;2.70;;
37199;SDS011;23096;50.892;16.746;2023-03-23T16:50:15;5.50;;;2.20;;
37199;SDS011;23096;50.892;16.746;2023-03-23T16:52:44;6.00;;;2.20;;
37199;SDS011;23096;50.892;16.746;2023-03-23T16:55:12;4.20;;;2.50;;
37199;SDS011;23096;50.892;16.746;2023-03-23T16:57:39;4.70;;;2.70;;
37199;SDS011;23096;50.892;16.746;2023-03-23T17:00:07;4.30;;;2.70;;
37199;SDS011;23096;50.892;16.746;2023-03-23T17:02:35;4.30;;;2.50;;
37199;SDS011;23096;50.892;16.746;2023-03-23T17:05:02;7.50;;;3.20;;
37199;SDS011;23096;50.892;16.746;2023-03-23T17:07:28;5.30;;;2.50;;
37199;SDS011;23096;50.892;16.746;2023-03-23T17:09:54;2.90;;;2.00;;
37199;SDS011;23096;50.892;16.746;2023-03-23T17:12:19;6.20;;;2.70;;
37199;SDS011;23096;50.892;16.746;2023-03-23T17:14:45;3.50;;;2.50;;
37199;SDS011;23096;50.892;16.746;2023-03-23T17:17:11;4.30;;;2.30;;
37199;SDS011;23096;50.892;16.746;2023-03-23T17:19:37;3.20;;;2.20;;
37199;SDS011;23096;50.892;16.746;2023-03-23T17:22:02;4.00;;;2.10;;
37199;SDS011;23096;50.892;16.746;2023-03-23T17:24:28;4.80;;;2.60;;
37199;SDS011;23096;50.892;16.746;2023-03-23T17:26:54;4.60;;;3.00;;
37199;SDS011;23096;50.892;16.746;2023-03-23T17:29:20;6.10;;;2.60;;
37199;SDS011;23096;50.892;16.746;2023-03-23T17:31:47;4.10;;;2.90;;
37199;SDS011;23096;50.892;16.746;2023-03-23T17:34:13;4.30;;;2.70;;
37199;SDS011;23096;50.892;16.746;2023-03-23T17:36:39;4.90;;;2.30;;
37199;SDS011;23096;50.892;16.746;2023-03-23T17:39:04;4.90;;;3.10;;
37199;SDS011;23096;50.892;16.746;2023-03-23T17:41:30;4.60;;;2.60;;